createdAt,value
2023-10-01T00:03:51.962Z,101168.50
2023-10-01T00:08:55.068Z,101166.34
2023-10-01T00:13:56.731Z,101174.56
2023-10-01T00:19:00.620Z,101170.88
2023-10-01T00:24:02.512Z,101167.47
2023-10-01T00:29:04.991Z,101167.81
2023-10-01T00:34:08.458Z,101165.19
2023-10-01T00:39:10.397Z,101169.81
2023-10-01T00:44:13.878Z,101157.94
2023-10-01T00:49:16.239Z,101153.00
2023-10-01T00:54:18.090Z,101142.78
2023-10-01T00:59:19.780Z,101139.50
2023-10-01T01:04:24.110Z,101135.72
2023-10-01T01:09:25.854Z,101127.75
2023-10-01T01:14:29.126Z,101125.31
2023-10-01T01:19:31.585Z,101121.03
2023-10-01T01:24:33.442Z,101123.16
2023-10-01T01:29:35.449Z,101116.69
2023-10-01T01:34:37.320Z,101122.19
2023-10-01T01:39:55.654Z,101121.59
2023-10-01T01:45:16.122Z,101121.88
2023-10-01T01:50:28.519Z,101111.22
2023-10-01T01:55:32.856Z,101108.19
2023-10-01T02:00:48.548Z,101109.63
2023-10-01T02:05:50.303Z,101102.53
2023-10-01T02:10:53.860Z,101112.47
2023-10-01T02:15:56.320Z,101113.66
2023-10-01T02:20:58.432Z,101100.16
2023-10-01T02:26:02.006Z,101103.38
2023-10-01T02:31:08.101Z,101111.59
2023-10-01T02:36:13.825Z,101107.31
2023-10-01T02:41:16.303Z,101099.69
2023-10-01T02:46:26.195Z,101102.13
2023-10-01T02:51:33.929Z,101079.09
2023-10-01T02:56:53.719Z,101083.78
2023-10-01T03:01:56.540Z,101106.53
2023-10-01T03:06:58.982Z,101116.94
2023-10-01T03:12:20.275Z,101100.38
2023-10-01T03:17:24.696Z,101100.97
2023-10-01T03:22:33.035Z,101096.44
2023-10-01T03:27:40.041Z,101113.94
2023-10-01T03:32:41.928Z,101099.19
2023-10-01T03:37:44.824Z,101077.88
2023-10-01T03:42:51.949Z,101072.19
2023-10-01T03:47:59.270Z,101075.47
2023-10-01T03:53:01.149Z,101091.53
2023-10-01T03:58:06.021Z,101089.97
2023-10-01T04:03:09.505Z,101101.38
2023-10-01T04:08:15.141Z,101104.94
2023-10-01T04:13:22.270Z,101096.72
2023-10-01T04:18:25.494Z,101112.78
2023-10-01T04:23:36.606Z,101126.72
2023-10-01T04:28:45.182Z,101125.34
2023-10-01T04:33:51.911Z,101091.09
2023-10-01T04:39:01.376Z,101089.78
2023-10-01T04:44:09.367Z,101080.00
2023-10-01T04:49:37.039Z,101082.72
2023-10-01T04:54:41.559Z,101065.25
2023-10-01T04:59:58.716Z,101051.75
2023-10-01T05:05:11.172Z,101051.47
2023-10-01T05:10:14.363Z,101056.19
2023-10-01T05:15:19.323Z,101073.25
2023-10-01T05:20:21.102Z,101080.53
2023-10-01T05:25:26.204Z,101085.53
2023-10-01T05:30:37.709Z,101092.13
2023-10-01T05:35:45.820Z,101096.56
2023-10-01T05:40:53.497Z,101103.56
2023-10-01T05:46:02.633Z,101098.31
2023-10-01T05:51:07.659Z,101104.03
2023-10-01T05:56:20.517Z,101109.59
2023-10-01T06:01:23.262Z,101104.22
2023-10-01T06:06:25.807Z,101110.94
2023-10-01T06:11:43.275Z,101109.09
2023-10-01T06:16:45.074Z,101114.81
2023-10-01T06:21:48.258Z,101111.53
2023-10-01T06:26:52.100Z,101122.34
2023-10-01T06:31:54.425Z,101112.19
2023-10-01T06:37:03.052Z,101122.16
2023-10-01T06:42:21.575Z,101118.53
2023-10-01T06:47:27.214Z,101118.94
2023-10-01T06:52:30.259Z,101119.28
2023-10-01T06:57:34.807Z,101112.84
2023-10-01T07:02:37.573Z,101107.34
2023-10-01T07:07:42.527Z,101114.72
2023-10-01T07:12:59.066Z,101110.84
2023-10-01T07:18:14.801Z,101113.25
2023-10-01T07:23:20.105Z,101123.06
2023-10-01T07:28:21.862Z,101115.28
2023-10-01T07:33:23.860Z,101102.31
2023-10-01T07:38:27.891Z,101102.28
2023-10-01T07:43:31.100Z,101095.59
2023-10-01T07:48:33.281Z,101104.84
2023-10-01T07:53:35.068Z,101124.50
2023-10-01T07:58:52.355Z,101116.16
2023-10-01T08:03:57.464Z,101116.50
2023-10-01T08:09:00.615Z,101112.94
2023-10-01T08:14:06.803Z,101105.50
2023-10-01T08:19:12.763Z,101111.44
2023-10-01T08:24:19.470Z,101109.19
2023-10-01T08:29:21.151Z,101101.22
2023-10-01T08:34:25.801Z,101102.72
2023-10-01T08:39:35.188Z,101099.34
2023-10-01T08:44:48.015Z,101105.97
2023-10-01T08:49:51.133Z,101103.63
2023-10-01T08:54:57.431Z,101108.50
2023-10-01T09:00:01.172Z,101098.72
2023-10-01T09:05:09.175Z,101093.59
2023-10-01T09:10:19.193Z,101098.88
2023-10-01T09:15:39.257Z,101100.69
2023-10-01T09:21:01.500Z,101085.34
2023-10-01T09:26:03.672Z,101080.06
2023-10-01T09:31:24.318Z,101082.59
2023-10-01T09:36:36.562Z,101070.00
2023-10-01T09:41:44.589Z,101075.22
2023-10-01T09:46:46.346Z,101066.53
2023-10-01T09:51:53.895Z,101072.19
2023-10-01T09:56:57.879Z,101075.50
2023-10-01T10:02:04.205Z,101083.09
2023-10-01T10:07:09.181Z,101078.28
2023-10-01T10:12:10.893Z,101065.81
2023-10-01T10:17:18.413Z,101066.88
2023-10-01T10:22:20.157Z,101065.88
2023-10-01T10:27:28.778Z,101069.75
2023-10-01T10:32:43.521Z,101061.84
2023-10-01T10:37:46.572Z,101058.50
2023-10-01T10:42:48.331Z,101059.19
2023-10-01T10:48:07.805Z,101055.09
2023-10-01T10:53:44.511Z,101050.81
2023-10-01T10:58:52.012Z,101054.53
2023-10-01T11:03:58.210Z,101054.78
2023-10-01T11:09:00.319Z,101058.75
2023-10-01T11:14:02.273Z,101051.06
2023-10-01T11:19:15.325Z,101047.91
2023-10-01T11:24:18.059Z,101032.31
2023-10-01T11:29:23.513Z,101032.66
2023-10-01T11:34:28.049Z,101029.72
2023-10-01T11:39:50.463Z,101022.75
2023-10-01T11:44:53.945Z,101015.41
2023-10-01T11:50:08.522Z,101016.59
2023-10-01T11:55:22.939Z,101003.50
2023-10-01T12:00:42.904Z,101001.63
2023-10-01T12:05:47.559Z,100990.84
2023-10-01T12:10:52.671Z,100985.97
2023-10-01T12:15:54.609Z,100993.16
2023-10-01T12:20:57.453Z,101005.84
2023-10-01T12:26:19.064Z,100994.44
2023-10-01T12:31:24.818Z,100995.91
2023-10-01T12:36:33.450Z,100984.28
2023-10-01T12:41:55.484Z,100972.03
2023-10-01T12:47:02.091Z,100966.97
2023-10-01T12:52:05.205Z,100961.25
2023-10-01T12:57:10.764Z,100966.56
2023-10-01T13:02:29.339Z,100957.47
2023-10-01T13:07:37.152Z,100955.34
2023-10-01T13:12:58.769Z,100953.03
2023-10-01T13:18:02.630Z,100954.28
2023-10-01T13:23:11.051Z,100961.25
2023-10-01T13:28:20.249Z,100957.47
2023-10-01T13:33:24.636Z,100952.38
2023-10-01T13:38:28.470Z,100944.53
2023-10-01T13:43:58.246Z,100948.16
2023-10-01T13:49:18.557Z,100935.47
2023-10-01T13:54:38.973Z,100928.47
2023-10-01T13:59:59.328Z,100923.81
2023-10-01T14:05:19.648Z,100924.66
2023-10-01T14:10:21.568Z,100921.50
2023-10-01T14:15:24.758Z,100912.63
2023-10-01T14:20:43.715Z,100912.59
2023-10-01T14:26:15.194Z,100901.41
2023-10-01T14:31:36.095Z,100893.56
2023-10-01T14:36:43.749Z,100891.03
2023-10-01T14:41:47.207Z,100905.63
2023-10-01T14:46:49.873Z,100902.03
2023-10-01T14:51:55.210Z,100894.63
2023-10-01T14:56:57.990Z,100896.34
2023-10-01T15:02:00.099Z,100896.69
2023-10-01T15:07:02.270Z,100895.59
2023-10-01T15:12:07.685Z,100889.06
2023-10-01T15:17:18.677Z,100884.41
2023-10-01T15:22:21.133Z,100880.16
2023-10-01T15:27:26.356Z,100883.31
2023-10-01T15:32:31.668Z,100891.97
2023-10-01T15:37:34.346Z,100892.41
2023-10-01T15:42:37.537Z,100883.72
2023-10-01T15:47:47.006Z,100885.41
2023-10-01T15:52:51.071Z,100873.13
2023-10-01T15:57:56.844Z,100876.69
2023-10-01T16:03:11.222Z,100877.50
2023-10-01T16:08:19.893Z,100875.38
2023-10-01T16:13:29.757Z,100874.31
2023-10-01T16:18:33.584Z,100870.06
2023-10-01T16:23:39.468Z,100878.44
2023-10-01T16:28:42.953Z,100883.88
2023-10-01T16:33:47.061Z,100883.81
2023-10-01T16:38:55.141Z,100882.94
2023-10-01T16:44:00.338Z,100890.50
2023-10-01T16:49:04.885Z,100900.56
2023-10-01T16:54:22.484Z,100902.03
2023-10-01T16:59:25.238Z,100901.78
2023-10-01T17:04:32.512Z,100908.50
2023-10-01T17:09:35.418Z,100913.75
2023-10-01T17:14:39.246Z,100918.97
2023-10-01T17:19:41.203Z,100921.63
2023-10-01T17:24:47.798Z,100926.66
2023-10-01T17:29:50.702Z,100936.53
2023-10-01T17:34:53.562Z,100921.72
2023-10-01T17:40:01.893Z,100917.69
2023-10-01T17:45:04.270Z,100919.28
2023-10-01T17:50:15.015Z,100921.78
2023-10-01T17:55:27.373Z,100927.84
2023-10-01T18:00:43.072Z,100922.97
2023-10-01T18:06:00.191Z,100936.41
2023-10-01T18:11:11.026Z,100938.28
2023-10-01T18:16:27.005Z,100948.84
2023-10-01T18:21:30.056Z,100940.44
2023-10-01T18:26:32.212Z,100933.66
2023-10-01T18:31:35.041Z,100931.34
2023-10-01T18:36:36.789Z,100926.63
2023-10-01T18:41:42.554Z,100934.06
2023-10-01T18:46:44.383Z,100937.66
2023-10-01T18:51:49.042Z,100932.28
2023-10-01T18:56:52.228Z,100934.47
2023-10-01T19:01:58.042Z,100933.03
2023-10-01T19:07:00.315Z,100928.88
2023-10-01T19:12:02.012Z,100935.66
2023-10-01T19:17:03.940Z,100934.22
2023-10-01T19:22:11.943Z,100933.94
2023-10-01T19:27:13.850Z,100941.47
2023-10-01T19:32:15.566Z,100949.00
2023-10-01T19:37:17.445Z,100960.84
2023-10-01T19:42:25.182Z,100950.13
2023-10-01T19:47:26.988Z,100938.97
2023-10-01T19:52:29.951Z,100955.31
2023-10-01T19:57:41.069Z,100948.41
2023-10-01T20:02:45.751Z,100952.28
2023-10-01T20:07:50.664Z,100947.78
2023-10-01T20:12:53.870Z,100949.38
2023-10-01T20:18:08.832Z,100942.56
2023-10-01T20:23:10.607Z,100941.06
2023-10-01T20:28:12.300Z,100940.75
2023-10-01T20:33:16.308Z,100941.47
2023-10-01T20:38:33.797Z,100933.66
2023-10-01T20:43:35.663Z,100934.69
2023-10-01T20:48:41.579Z,100944.06
2023-10-01T20:53:44.296Z,100932.31
2023-10-01T20:58:46.621Z,100924.66
2023-10-01T21:03:51.804Z,100924.66
2023-10-01T21:08:53.522Z,100919.72
2023-10-01T21:14:01.752Z,100915.31
2023-10-01T21:19:04.320Z,100912.59
2023-10-01T21:24:10.126Z,100917.06
2023-10-01T21:29:19.829Z,100913.31
2023-10-01T21:34:21.753Z,100902.75
2023-10-01T21:39:24.487Z,100902.09
2023-10-01T21:44:27.864Z,100907.88
2023-10-01T21:49:30.950Z,100914.19
2023-10-01T21:54:33.168Z,100913.31
2023-10-01T21:59:39.252Z,100910.56
2023-10-01T22:04:49.214Z,100911.75
2023-10-01T22:09:54.836Z,100918.56
2023-10-01T22:14:56.558Z,100915.84
2023-10-01T22:19:58.576Z,100920.25
2023-10-01T22:25:00.302Z,100909.72
2023-10-01T22:30:02.562Z,100906.16
2023-10-01T22:35:09.036Z,100919.09
2023-10-01T22:40:13.175Z,100905.31
2023-10-01T22:45:29.948Z,100918.97
2023-10-01T22:50:32.122Z,100923.84
2023-10-01T22:55:34.861Z,100912.97
2023-10-01T23:00:38.176Z,100905.47
2023-10-01T23:05:40.725Z,100919.94
2023-10-01T23:10:43.133Z,100918.06
2023-10-01T23:15:50.007Z,100928.03
2023-10-01T23:20:54.567Z,100938.06
2023-10-01T23:26:06.494Z,100937.88
2023-10-01T23:31:13.169Z,100942.28
2023-10-01T23:36:15.629Z,100946.34
2023-10-01T23:41:29.612Z,100936.13
2023-10-01T23:46:34.563Z,100925.75
2023-10-01T23:51:42.840Z,100929.59
2023-10-01T23:56:44.654Z,100924.13
